This is the latest recevied weather packets stored in our database for station/object N0OQA. If no packets are shown the sender has not sent any weather packets the latest 10 day(s).
| Time | Temp. | Humidity | Pressure | Rain* | Wind** | Luminosity | Snow |
|---|---|---|---|---|---|---|---|
| 1777978537 | 2.22° C | 74% | 1010.6 hPa | 0 mm | - | - | - |
| 1777977937 | 2.22° C | 73% | 1010.5 hPa | 0 mm | - | - | - |
| 1777977336 | 2.78° C | 73% | 1010.3 hPa | 0 mm | - | - | - |
| 1777975536 | 2.78° C | 74% | 1010.4 hPa | 0 mm | - | - | - |
| 1777975234 | 2.78° C | 74% | 1010.5 hPa | 0 mm | - | - | - |
| 1777973432 | 3.33° C | 72% | 1010.3 hPa | 0 mm | - | - | - |
| 1777972231 | 3.33° C | 72% | 1010 hPa | 0 mm | - | - | - |
| 1777971931 | 3.33° C | 72% | 1009.9 hPa | 0 mm | - | - | - |
| 1777971030 | 3.89° C | 70% | 1009.7 hPa | 0 mm | - | - | - |
| 1777970730 | 3.89° C | 70% | 1009.6 hPa | 0 mm | - | - | - |
| 1777969528 | 3.89° C | 69% | 1009.5 hPa | 0 mm | - | - | - |
| 1777969228 | 3.89° C | 69% | 1009.5 hPa | 0 mm | - | - | - |
| 1777968928 | 3.89° C | 68% | 1009.4 hPa | 0 mm | - | - | - |
| 1777966526 | 4.44° C | 65% | 1009.3 hPa | 0 mm | - | - | - |
| 1777963823 | 5° C | 63% | 1009.2 hPa | 0 mm | - | - | - |
| 1777962021 | 5.56° C | 61% | 1009.1 hPa | 0 mm | - | - | - |
| 1777953313 | 7.22° C | 56% | 1008.4 hPa | 0 mm | - | - | - |
| 1777949109 | 7.78° C | 53% | 1007.8 hPa | 0 mm | - | - | - |
| 1777904967 | 13.33° C | 50% | 1000 hPa | 0 mm | - | - | - |
| 1777902564 | 13.33° C | 52% | 999.8 hPa | 0 mm | - | - | - |
| 1777894456 | 15° C | 45% | 997.5 hPa | 0 mm | - | - | - |
| 1777880943 | 13.89° C | 45% | 999.3 hPa | 0 mm | - | - | - |
| 1777879142 | 14.44° C | 44% | 1000.1 hPa | 0 mm | - | - | - |
| 1777878541 | 14.44° C | 44% | 1000.3 hPa | 0 mm | - | - | - |
| 1777877941 | 14.44° C | 45% | 1000.5 hPa | 0 mm | - | - | - |
* Rain since midnight (hover to see other rain measurements)
** Current wind speed in m/s (hover to see current wind gust speed)